Date,TemperatureHighF,TemperatureAvgF,TemperatureLowF,DewpointHighF,DewpointAvgF,DewpointLowF,HumidityHigh,HumidityAvg,HumidityLow,PressureMaxIn,PressureMinIn,WindSpeedMaxMPH,WindSpeedAvgMPH,GustSpeedMaxMPH,PrecipitationSumIn
2014-1-26,30,16,4,27,12,-2,99,85,72,0.00,40.00,25,12,39,3.94
2014-1-27,23,4,-8,18,-10,-100,97,67,56,0.00,40.00,29,17,39,0.55
2014-1-28,2,-6,-14,-10,-15,-19,75,64,47,0.00,40.00,12,8,16,0.00
2014-1-29,15,6,-3,1,-5,-10,75,62,42,0.00,40.00,19,11,27,0.00
2014-1-30,29,17,5,26,-5,-100,99,57,46,0.00,40.00,20,13,27,0.00
2014-1-31,31,29,26,29,-17,-100,99,54,60,0.00,40.00,13,6,20,14.04
2014-2-1,36,30,27,-100,-100,-100,0,0,100,0.00,40.00,12,6,17,31.04
2014-3-2,20,15,12,14,-29,-100,100,50,62,0.00,40.00,11,4,16,2.79
2014-3-3,15,5,-7,3,-8,-14,74,55,33,0.00,40.00,9,3,16,0.00
2014-3-4,22,10,-5,7,0,-12,83,62,44,0.00,40.00,10,2,12,0.00
2014-3-5,23,17,4,18,12,1,97,79,63,0.00,40.00,14,7,20,5.03
2014-3-6,25,17,9,15,10,6,89,74,60,0.00,40.00,12,7,17,0.00
2014-3-7,45,26,2,31,18,0,96,74,38,0.00,40.00,13,2,13,0.00
2014-3-8,37,34,30,35,-43,-100,97,40,87,0.00,40.00,13,8,16,6.18
2014-4-6,54,40,24,35,-7,-100,96,40,29,0.00,40.00,11,3,17,0.00
2014-4-7,51,42,35,41,-10,-100,82,44,39,0.00,40.00,16,6,21,8.47
2014-4-8,57,46,38,41,-12,-100,98,40,36,0.00,40.00,12,9,17,2.83
2014-4-9,59,47,35,37,32,22,97,60,29,0.00,40.00,13,6,20,0.00
2014-4-10,68,55,43,53,24,-100,98,50,35,0.00,40.00,21,11,35,3.39
2014-4-11,66,52,40,41,-30,-100,63,18,17,0.00,40.00,10,3,16,0.00
2014-4-12,74,60,44,56,43,34,84,53,32,0.00,40.00,21,8,29,0.00
2014-4-13,64,55,62,55,35,-100,81,76,70,0.00,40.00,4,4,7,0.00
2014-6-15,-200,0,200,-100,-100,-100,57,57,57,0.00,40.00,3,3,7,0.00
2014-6-16,73,72,72,71,71,71,96,96,95,0.00,40.00,6,6,9,0.00
2014-6-20,71,71,71,70,70,70,97,97,97,0.00,40.00,2,2,10,0.00
2014-6-29,70,47,70,-100,-100,-100,0,0,100,0.00,40.00,13,10,13,0.00
2014-7-2,67,67,67,66,66,66,95,95,95,0.00,40.00,3,3,4,0.00
2014-7-3,59,59,59,58,58,58,96,96,96,0.00,40.00,7,7,10,0.00
2014-7-5,64,64,64,59,59,59,84,84,84,0.00,40.00,2,2,2,0.00
2014-7-6,64,64,64,59,59,59,84,84,84,0.00,40.00,2,2,2,0.00
2014-7-29,69,57,49,56,22,53,63,24,58,0.00,40.00,9,3,12,0.00
2014-7-30,62,62,62,57,57,57,81,81,81,0.00,40.00,2,2,3,0.00
2014-7-31,73,42,54,63,21,63,71,39,47,0.00,40.00,7,4,14,0.00
2014-8-1,81,76,66,64,61,59,93,62,46,0.00,40.00,7,5,12,0.00
2014-8-2,74,74,74,67,67,67,79,79,79,0.00,40.00,8,8,11,0.00
2014-8-3,67,60,58,60,15,60,79,20,79,0.00,40.00,2,0,3,0.00
2014-8-4,83,75,64,61,47,58,91,44,43,0.00,40.00,2,0,7,0.00
2014-9-8,79,64,49,58,41,48,98,47,34,0.00,40.00,9,3,14,0.00
2014-9-9,75,64,51,67,37,57,99,47,54,0.00,40.00,8,2,12,0.00
2014-9-10,75,68,62,64,28,62,99,43,91,0.00,40.00,16,7,32,0.00
2014-9-11,70,57,53,63,47,50,98,77,72,0.00,40.00,18,10,27,0.00
2014-9-12,59,55,52,55,51,49,98,86,72,0.00,40.00,13,9,13,0.00
2014-9-13,61,54,48,55,30,40,99,47,45,0.00,40.00,13,11,17,4.49
2014-9-14,46,43,43,46,7,45,99,15,95,0.00,40.00,13,8,13,0.00
2014-9-28,80,63,53,61,35,50,98,41,35,0.00,40.00,4,1,9,0.00
2014-9-29,79,63,49,59,33,50,99,36,36,0.00,40.00,9,2,14,0.00
2014-9-30,60,56,50,59,37,48,100,62,73,0.00,40.00,11,4,16,0.00
2014-10-1,68,56,47,52,36,48,99,53,53,0.00,40.00,9,3,12,0.00
2014-10-2,75,62,51,69,36,49,99,53,70,0.00,40.00,9,4,12,1.10
2014-10-3,70,62,47,67,46,42,99,68,68,0.00,40.00,17,13,30,1.10
2014-10-4,47,43,40,45,35,28,97,75,47,0.00,40.00,22,12,28,1.65
2014-10-21,51,48,44,47,42,36,97,80,65,0.00,40.00,13,12,13,0.00
2014-10-22,49,42,35,40,37,35,98,81,71,0.00,40.00,13,11,13,0.00
2014-10-23,59,42,28,44,20,37,97,34,44,0.00,40.00,13,10,13,0.00
2014-10-24,61,46,35,52,31,37,99,57,65,0.00,40.00,13,6,13,0.00
2014-10-25,68,56,47,56,25,28,99,35,24,0.00,40.00,13,12,17,0.00
2014-10-26,62,50,37,38,33,26,87,55,26,0.00,40.00,13,10,15,0.00
2014-10-27,75,59,38,61,47,35,91,66,48,0.00,40.00,21,8,27,0.00